createdAt,value
2022-10-10T00:04:15.542Z,2.65
2022-10-10T00:09:18.544Z,1.70
2022-10-10T00:14:23.108Z,2.22
2022-10-10T00:19:26.460Z,2.70
2022-10-10T00:24:29.518Z,2.33
2022-10-10T00:29:33.932Z,2.78
2022-10-10T00:34:36.973Z,2.28
2022-10-10T00:39:41.132Z,2.55
2022-10-10T00:45:06.966Z,2.00
2022-10-10T00:50:10.533Z,2.30
2022-10-10T00:55:14.717Z,2.38
2022-10-10T01:00:19.635Z,2.58
2022-10-10T01:05:23.048Z,3.17
2022-10-10T01:10:26.316Z,2.13
2022-10-10T01:15:43.874Z,1.90
2022-10-10T01:21:09.619Z,2.15
2022-10-10T01:26:34.686Z,2.40
2022-10-10T01:31:42.650Z,1.80
2022-10-10T01:36:52.466Z,2.10
2022-10-10T01:42:03.148Z,4.20
2022-10-10T01:47:10.184Z,2.30
2022-10-10T01:52:26.676Z,2.70
2022-10-10T01:57:39.615Z,2.35
2022-10-10T02:02:52.591Z,1.83
2022-10-10T02:07:58.601Z,2.03
2022-10-10T02:13:04.349Z,1.95
2022-10-10T02:18:11.672Z,2.22
2022-10-10T02:23:17.577Z,2.17
2022-10-10T02:28:24.102Z,2.25
2022-10-10T02:33:36.069Z,2.30
2022-10-10T02:38:41.795Z,2.20
2022-10-10T02:43:45.431Z,2.60
2022-10-10T02:48:49.893Z,2.20
2022-10-10T02:53:52.976Z,2.30
2022-10-10T02:58:56.021Z,2.50
2022-10-10T03:04:00.362Z,2.22
2022-10-10T03:09:04.613Z,2.33
2022-10-10T03:14:07.680Z,2.28
2022-10-10T03:19:12.070Z,2.90
2022-10-10T03:24:15.696Z,2.05
2022-10-10T03:29:18.798Z,2.40
2022-10-10T03:34:23.402Z,2.67
2022-10-10T03:39:26.518Z,2.60
2022-10-10T03:44:29.624Z,2.20
2022-10-10T03:49:34.333Z,2.20
2022-10-10T03:54:37.562Z,2.67
2022-10-10T03:59:41.017Z,2.58
2022-10-10T04:04:45.352Z,2.40
2022-10-10T04:09:48.428Z,3.15
2022-10-10T04:14:51.496Z,2.60
2022-10-10T04:19:57.639Z,3.03
2022-10-10T04:25:00.706Z,2.33
2022-10-10T04:30:04.497Z,2.50
2022-10-10T04:35:09.265Z,2.58
2022-10-10T04:40:12.477Z,2.83
2022-10-10T04:45:18.259Z,2.55
2022-10-10T04:50:24.071Z,2.65
2022-10-10T04:55:27.223Z,2.72
2022-10-10T05:00:30.629Z,2.83
2022-10-10T05:05:35.064Z,2.85
2022-10-10T05:10:39.206Z,3.05
2022-10-10T05:15:43.214Z,2.40
2022-10-10T05:20:47.853Z,2.83
2022-10-10T05:25:51.476Z,2.23
2022-10-10T05:30:54.796Z,2.67
2022-10-10T05:36:04.662Z,3.25
2022-10-10T05:41:08.699Z,2.50
2022-10-10T05:46:11.865Z,2.83
2022-10-10T05:51:16.495Z,2.80
2022-10-10T05:56:19.621Z,2.83
2022-10-10T06:01:22.719Z,3.80
2022-10-10T06:06:27.501Z,3.67
2022-10-10T06:11:30.615Z,3.47
2022-10-10T06:16:33.772Z,3.90
2022-10-10T06:21:38.331Z,4.47
2022-10-10T06:26:41.378Z,4.10
2022-10-10T06:31:44.431Z,3.53
2022-10-10T06:36:52.060Z,4.28
2022-10-10T06:41:55.110Z,3.17
2022-10-10T06:46:58.171Z,3.10
2022-10-10T06:52:02.734Z,3.85
2022-10-10T06:57:06.167Z,4.10
2022-10-10T07:02:12.734Z,4.47
2022-10-10T07:07:17.133Z,3.67
2022-10-10T07:12:20.349Z,3.63
2022-10-10T07:17:23.347Z,2.67
2022-10-10T07:22:27.712Z,3.08
2022-10-10T07:27:30.676Z,2.72
2022-10-10T07:32:34.105Z,2.30
2022-10-10T07:37:39.240Z,2.92
2022-10-10T07:47:45.632Z,2.35
2022-10-10T07:52:50.120Z,2.53
2022-10-10T07:57:53.695Z,2.70
2022-10-10T08:02:56.899Z,2.47
2022-10-10T08:08:01.535Z,2.50
2022-10-10T08:13:05.063Z,2.83
2022-10-10T08:18:08.187Z,2.88
2022-10-10T08:23:12.856Z,2.00
2022-10-10T08:28:16.577Z,3.03
2022-10-10T08:33:20.278Z,2.42
2022-10-10T08:38:24.712Z,1.67
2022-10-10T08:43:33.678Z,2.40
2022-10-10T10:27:26.713Z,2.28
2022-10-10T10:32:46.798Z,2.15
2022-10-10T10:38:06.097Z,2.20
2022-10-10T10:43:38.202Z,3.03
2022-10-10T10:48:45.465Z,3.00
2022-10-10T10:53:59.870Z,1.90
2022-10-10T11:00:16.628Z,2.33
2022-10-10T11:05:31.119Z,2.17
2022-10-10T11:10:50.608Z,2.03
2022-10-10T11:16:06.634Z,2.40
2022-10-10T11:59:06.225Z,1.70
2022-10-10T12:04:09.706Z,1.75
2022-10-10T12:09:18.341Z,2.00
2022-10-10T12:14:25.724Z,1.73
2022-10-10T12:19:29.615Z,1.88
2022-10-10T12:24:34.649Z,2.03
2022-10-10T12:29:50.109Z,1.35
2022-10-10T12:35:00.214Z,1.73
2022-10-10T12:40:22.139Z,1.48
2022-10-10T12:46:11.454Z,1.90
2022-10-10T12:51:22.945Z,1.90
2022-10-10T12:56:38.775Z,1.92
2022-10-10T13:01:45.281Z,1.65
2022-10-10T13:06:53.741Z,2.20
2022-10-10T13:11:59.874Z,1.80
2022-10-10T13:17:03.195Z,2.08
2022-10-10T13:22:08.701Z,1.83
2022-10-10T13:27:17.437Z,1.73
2022-10-10T13:32:24.116Z,2.00
2022-10-10T13:37:29.691Z,2.67
2022-10-10T13:42:35.058Z,2.00
2022-10-10T13:47:48.719Z,1.90
2022-10-10T13:53:43.306Z,2.22
2022-10-10T13:58:50.410Z,2.40
2022-10-10T14:03:56.927Z,2.65
2022-10-10T14:09:12.565Z,2.47
2022-10-10T14:14:21.420Z,2.60
2022-10-10T14:19:24.983Z,2.78
2022-10-10T14:24:29.936Z,2.33
2022-10-10T14:29:33.132Z,2.40
2022-10-10T14:34:36.269Z,2.38
2022-10-10T14:39:40.691Z,1.92
2022-10-10T14:44:44.138Z,2.70
2022-10-10T14:49:48.075Z,2.45
2022-10-10T14:54:52.501Z,2.20
2022-10-10T14:59:55.668Z,2.57
2022-10-10T15:04:58.896Z,2.47
2022-10-10T15:10:32.556Z,1.95
2022-10-10T15:15:27.878Z,2.50
2022-10-10T15:20:31.617Z,1.90
2022-10-10T15:25:36.158Z,2.50
2022-10-10T15:30:42.905Z,2.43
2022-10-10T15:36:07.862Z,2.20
2022-10-10T15:41:11.134Z,2.83
2022-10-10T15:46:14.261Z,2.57
2022-10-10T15:51:17.751Z,2.50
2022-10-10T15:56:22.467Z,2.67
2022-10-10T16:01:26.007Z,3.07
2022-10-10T16:06:29.545Z,2.65
2022-10-10T16:11:36.643Z,2.78
2022-10-10T16:16:39.945Z,2.70
2022-10-10T16:21:43.278Z,3.40
2022-10-10T16:49:31.407Z,3.45
2022-10-10T16:54:35.894Z,3.80
2022-10-10T16:59:39.119Z,3.78
2022-10-10T17:04:43.929Z,3.55
2022-10-10T17:09:47.119Z,3.83
2022-10-10T17:14:50.201Z,3.67
2022-10-10T17:19:55.310Z,3.08
2022-10-10T17:24:58.524Z,3.35
2022-10-10T17:30:01.879Z,4.13
2022-10-10T17:35:07.645Z,4.38
2022-10-10T17:40:11.278Z,3.88
2022-10-10T17:45:14.467Z,4.63
2022-10-10T17:52:59.159Z,3.50
2022-10-10T17:58:02.912Z,4.77
2022-10-10T18:03:08.878Z,4.32
2022-10-10T18:08:13.722Z,4.03
2022-10-10T18:13:17.124Z,4.53
2022-10-10T18:18:20.706Z,3.80
2022-10-10T18:23:28.055Z,4.20
2022-10-10T18:28:32.905Z,4.85
2022-10-10T18:33:36.514Z,4.80
2022-10-10T18:38:41.025Z,4.45
2022-10-10T18:43:44.917Z,4.87
2022-10-10T18:48:52.987Z,4.47
2022-10-10T18:54:02.114Z,5.47
2022-10-10T18:59:08.244Z,5.78
2022-10-10T19:04:13.873Z,6.50
2022-10-10T20:37:20.732Z,6.38
2022-10-10T20:42:24.142Z,6.43
2022-10-10T20:47:28.780Z,5.53
2022-10-10T20:52:32.195Z,5.40
2022-10-10T20:57:35.301Z,4.32
2022-10-10T21:02:39.830Z,4.47
2022-10-10T21:07:42.938Z,5.00
2022-10-10T21:12:46.455Z,3.70
2022-10-10T21:17:51.186Z,4.00
2022-10-10T21:22:55.709Z,3.60
2022-10-10T21:27:58.733Z,3.20
2022-10-10T21:33:03.773Z,3.75
2022-10-10T21:38:07.198Z,2.80
2022-10-10T21:43:11.022Z,3.85
2022-10-10T21:48:15.496Z,3.17
2022-10-10T21:53:18.458Z,3.13
2022-10-10T21:58:21.932Z,3.63
2022-10-10T22:03:26.328Z,4.07
2022-10-10T22:08:50.302Z,3.53
2022-10-10T22:13:53.436Z,4.55
2022-10-10T22:18:58.855Z,4.22
2022-10-10T22:24:04.749Z,4.05
2022-10-10T22:29:08.653Z,3.78
2022-10-10T22:34:13.786Z,3.85
2022-10-10T22:39:16.928Z,4.03
2022-10-10T22:44:20.964Z,5.15
2022-10-10T22:49:25.512Z,4.40
2022-10-10T22:54:28.759Z,3.87
2022-10-10T22:59:31.921Z,3.38
2022-10-10T23:04:36.370Z,4.03
2022-10-10T23:09:39.688Z,3.40
2022-10-10T23:14:42.729Z,2.83
2022-10-10T23:19:47.250Z,2.20
2022-10-10T23:24:50.236Z,3.00
2022-10-10T23:29:53.366Z,2.10
2022-10-10T23:34:58.014Z,2.05
